Terminal Aerodrome Forecast
Issued by NWS Portland, OR

Home | Current Version | Previous Version | Text Only | Print | Product List | Glossary On
Versions: 1 2 3 4 5 6 7 8 9 10 11 12 13 14 15 16 17 18 19 20 21 22 23 24 25 26 27 28 29 30 31
000
FTUS46 KPQR 280530
TAFEUG
TAF
KEUG 280530Z 2806/2906 18008KT P6SM -RA SCT025 OVC040
     FM281000 18014KT 5SM RA BR SCT015 OVC030
     FM281600 18015KT P6SM -RA SCT015 OVC035
     FM290500 21010KT 5SM -RA BR OVC015=

USA.gov is the U.S. government's official web portal to all federal, state and local government web resources and services.